宮崎雄一郎のゆうちゃんブログ

相模原市中央区の相模原市議会議員候補予定者の宮崎雄一郎のブログです。日々の考えや活動を発信してまいります。皆さまからの声も募集しております。


テーマ:
元パイロットの雪情報です。個人的な分析です。ご参考までに。

関東地方
すでに、TVやネットでもご存知のように、明日は夕方から関東南部でも雪が予報されています。

羽田空港航空気象では、
午後3時からみぞれ スタート 50%確率
夕方6時から、小雪スタート 50%確率
夜9時から、みぞれ スタート 50%確率
夜中12時には止んでいる。
冬型強まり、朝は低温ほぼ0度からマイナス1度

横田基地は、夕方4時過ぎから、小雪となるが夜9時には止むと出ています。

結論
上空1500メートルの気温がマイナス3度ラインが太平洋岸沿いのため、
『雪にはなるが、月曜日の雪より、量は少なく気温も低いため、水分少ない。
しかし、北日本よりは、気温高いので北日本の雪よりは水分多く深夜から翌日の凍結に要注意ください。』

電車、バスは、明日の夜はダイヤ乱れる予測。航空は、羽田空港は遅れはでるが、離着陸は可能。
しかし、福岡など西日本の便は、かなり乱れるため、羽田空港に飛行機が来ない可能性もある。

北海道や東北便は明日は普通に飛べそう。

アテンション!!西日本 関西から福岡、九州

上空1500メートルの気温がマイナス6度ラインが九州南部まで下がり、関西や中国地方を覆う。この温度は平野部にも大雪になる目安のため、要注意!!

明日の朝から、みぞれや雪がスタートし、明後日の朝まで雪になる。
その後は晴れるが、2日くらいは、強い寒気となりなかなか、雪は溶けない。

電車バスはもとより、航空にも影響あるため、必要ない方は外出控える方が良さそう。

以下は明日の羽田空港の航空気象予報の電文です。
30時間の中で、3時間毎の変化予報を報じています。
TAF RJTT 221105Z 2212/2318 35014KT 9999 FEW030 SCT050
BECMG 2300/2303 05010KT
TEMPO 2306/2309 4000 -RASN BR FEW005 BKN008
TEMPO 2309/2312 3000 -SN BR FEW003 BKN005
TEMPO 2312/2315 4000 -SNRA BR FEW005 BKN008
BECMG 2312/2315 32008KT


AD
いいね!した人  |  コメント(0)  |  リブログ(0)

yuchan1966さんの読者になろう

ブログの更新情報が受け取れて、アクセスが簡単になります

AD

ブログをはじめる

たくさんの芸能人・有名人が
書いているAmebaブログを
無料で簡単にはじめることができます。

公式トップブロガーへ応募

多くの方にご紹介したいブログを
執筆する方を「公式トップブロガー」
として認定しております。

芸能人・有名人ブログを開設

Amebaブログでは、芸能人・有名人ブログを
ご希望される著名人の方/事務所様を
随時募集しております。